Disclaimer

Please do not use the information listed here in-flight or in-navigation, as they are not provided to us by the airports but are provided by volunteers, so they might be outdated.

Search


Regions


Airport information page

No radio frequency information is available.

Airport informations:
Latitude: 21° 41' 54.00" S
Longitude: 041° 18' 06.01" W
Elevation: 57 feet - 17 meters
Operating hours: Remarks
Operating agency: Civil government, landing fees and diplomatic clearance may be required
Timezone: UTC-3(-2DT)
Fuel: Jet A1, without icing nhibitor.

Runway information:
07/25 - 5066 x 148 feet< - >1544 x 45 meters

Recent METARs:
SBCP 182200Z 04016KT CAVOK 26/22 Q1012

Airport on the map: